Time;durP1;ratioP1;P1;durP2;ratioP2;P2;SDS_P1;SDS_P2;PMS_P1;PMS_P2;Temp;Humidity;BMP_temperature;BMP_pressure;BME280_temperature;BME280_humidity;BME280_pressure;Samples;Min_cycle;Max_cycle;Signal;HPM_P1;HPM_P2
2021/12/03 00:00:23;;;;;;;0.00;0.00;;;3.50;91.10;;;;;;4085050;28;20048;-58
2021/12/03 00:02:46;;;;;;;0.00;0.00;;;3.50;91.00;;;;;;4093690;28;20075;-68
2021/12/03 00:05:09;;;;;;;0.00;0.00;;;3.50;90.90;;;;;;4069589;29;20496;-70
2021/12/03 00:07:33;;;;;;;0.00;0.00;;;3.40;90.80;;;;;;4069510;29;20052;-69
2021/12/03 00:09:56;;;;;;;0.00;0.00;;;3.50;90.80;;;;;;4096343;29;20047;-57
2021/12/03 00:12:19;;;;;;;0.00;0.00;;;3.50;90.70;;;;;;4097607;28;20066;-58
2021/12/03 00:14:41;;;;;;;0.00;0.00;;;3.40;90.70;;;;;;4111707;28;20049;-69
2021/12/03 00:17:04;;;;;;;0.00;0.00;;;3.40;90.80;;;;;;4097878;29;20043;-69
2021/12/03 00:19:26;;;;;;;0.00;0.00;;;3.50;90.80;;;;;;4111566;28;20054;-58
2021/12/03 00:21:48;;;;;;;0.00;0.00;;;3.40;90.80;;;;;;4097912;29;20051;-70
2021/12/03 00:24:11;;;;;;;0.00;0.00;;;3.40;90.80;;;;;;4111391;28;20085;-69
2021/12/03 00:26:33;;;;;;;0.00;0.00;;;3.40;90.80;;;;;;4111210;28;20469;-70
2021/12/03 00:28:55;;;;;;;0.00;0.00;;;3.40;90.90;;;;;;4079140;29;20052;-58
2021/12/03 00:31:18;;;;;;;0.00;0.00;;;3.30;91.00;;;;;;4077142;29;20756;-69
2021/12/03 00:33:41;;;;;;;0.00;0.00;;;3.40;91.00;;;;;;4107058;28;20074;-66
2021/12/03 00:36:07;;;;;;;0.00;0.00;;;3.40;90.90;;;;;;4098064;28;20047;-69
2021/12/03 00:38:35;;;;;;;0.00;0.00;;;3.40;90.90;;;;;;4095185;28;20045;-67
2021/12/03 00:40:58;;;;;;;0.00;0.00;;;3.40;90.80;;;;;;4068784;29;20052;-68
2021/12/03 00:43:20;;;;;;;0.00;0.00;;;3.40;90.80;;;;;;4068716;29;20505;-69
2021/12/03 00:45:44;;;;;;;0.00;0.00;;;3.40;90.60;;;;;;4079844;29;20055;-70
2021/12/03 00:48:06;;;;;;;0.00;0.00;;;3.40;90.50;;;;;;4110570;28;20069;-69
2021/12/03 00:50:29;;;;;;;0.00;0.00;;;3.40;90.30;;;;;;4097429;28;20055;-69
2021/12/03 00:52:53;;;;;;;0.00;0.00;;;3.30;90.20;;;;;;4111359;28;20061;-69
2021/12/03 00:55:18;;;;;;;0.00;0.00;;;3.40;90.20;;;;;;4068484;29;20435;-58
2021/12/03 00:57:42;;;;;;;0.00;0.00;;;3.50;90.00;;;;;;4080359;29;20056;-70
2021/12/03 01:00:17;;;;;;;0.00;0.00;;;3.40;90.10;;;;;;4110060;28;20134;-58
2021/12/03 01:02:40;;;;;;;0.00;0.00;;;3.40;90.00;;;;;;4085105;29;20053;-69
2021/12/03 01:05:04;;;;;;;0.00;0.00;;;3.40;90.10;;;;;;4097948;28;20110;-58
2021/12/03 01:07:26;;;;;;;0.00;0.00;;;3.50;90.20;;;;;;4111049;28;20485;-71
2021/12/03 01:09:49;;;;;;;0.00;0.00;;;3.40;90.20;;;;;;4097644;28;20402;-57
2021/12/03 01:12:11;;;;;;;0.00;0.00;;;3.40;90.30;;;;;;4097453;29;20796;-57
2021/12/03 01:14:34;;;;;;;0.00;0.00;;;3.40;90.40;;;;;;4068426;29;20075;-57
2021/12/03 01:16:56;;;;;;;0.00;0.00;;;3.30;90.30;;;;;;4081427;29;20070;-61
2021/12/03 01:19:19;;;;;;;0.00;0.00;;;3.30;90.30;;;;;;4068545;29;20131;-56
2021/12/03 01:21:41;;;;;;;0.00;0.00;;;3.40;90.30;;;;;;4068283;29;20104;-53
2021/12/03 01:24:05;;;;;;;0.00;0.00;;;3.50;90.30;;;;;;4093746;29;20057;-69
2021/12/03 01:26:27;;;;;;;0.00;0.00;;;3.50;90.30;;;;;;4083153;29;20062;-56
2021/12/03 01:28:50;;;;;;;0.00;0.00;;;3.50;90.10;;;;;;4079283;29;20557;-57
2021/12/03 01:31:14;;;;;;;0.00;0.00;;;3.50;90.00;;;;;;4068256;29;20123;-61
2021/12/03 01:33:36;;;;;;;0.00;0.00;;;3.50;89.40;;;;;;4068465;29;20049;-71
2021/12/03 01:35:59;;;;;;;0.00;0.00;;;3.50;89.20;;;;;;4068145;29;20074;-68
2021/12/03 01:38:21;;;;;;;0.00;0.00;;;3.50;89.20;;;;;;4096941;28;20083;-69
2021/12/03 01:40:44;;;;;;;0.00;0.00;;;3.50;89.20;;;;;;4110419;28;20129;-70
2021/12/03 01:43:08;;;;;;;0.00;0.00;;;3.50;89.20;;;;;;4097006;28;20050;-71
2021/12/03 01:45:34;;;;;;;0.00;0.00;;;3.50;89.30;;;;;;4097133;29;20055;-69
2021/12/03 01:47:58;;;;;;;0.00;0.00;;;3.60;89.40;;;;;;4097331;29;20414;-69
2021/12/03 01:50:27;;;;;;;0.00;0.00;;;3.60;89.30;;;;;;4109043;28;20057;-70
2021/12/03 01:52:49;;;;;;;0.00;0.00;;;3.60;89.00;;;;;;4068299;29;20044;-69
2021/12/03 01:55:14;;;;;;;0.00;0.00;;;3.60;88.70;;;;;;4081222;29;20050;-68
2021/12/03 01:57:36;;;;;;;0.00;0.00;;;3.60;88.40;;;;;;4100116;29;20051;-70
2021/12/03 01:59:58;;;;;;;0.00;0.00;;;3.60;88.30;;;;;;4100369;28;20147;-70
2021/12/03 02:02:20;;;;;;;0.00;0.00;;;3.60;88.40;;;;;;4099687;28;20062;-67
2021/12/03 02:04:43;;;;;;;0.00;0.00;;;3.60;88.80;;;;;;4113916;28;20093;-68
2021/12/03 02:07:07;;;;;;;0.00;0.00;;;3.60;89.40;;;;;;4100427;29;20612;-69
2021/12/03 02:09:29;;;;;;;0.00;0.00;;;3.60;88.90;;;;;;4100286;28;20051;-68
2021/12/03 02:11:52;;;;;;;0.00;0.00;;;3.70;88.80;;;;;;4099935;29;20106;-70
2021/12/03 02:14:14;;;;;;;0.00;0.00;;;3.70;88.70;;;;;;4113460;28;20062;-70
2021/12/03 02:16:38;;;;;;;0.00;0.00;;;3.70;88.90;;;;;;4274748;23;20266;-58
2021/12/03 02:19:00;;;;;;;0.00;0.00;;;3.70;89.10;;;;;;4115794;28;20046;-58
2021/12/03 02:21:22;;;;;;;0.00;0.00;;;3.70;89.30;;;;;;4102583;28;20055;-58
2021/12/03 02:23:47;;;;;;;0.00;0.00;;;3.70;89.10;;;;;;4102656;28;20059;-58
2021/12/03 02:26:10;;;;;;;0.00;0.00;;;3.70;88.80;;;;;;4102565;28;20051;-58
2021/12/03 02:28:35;;;;;;;0.00;0.00;;;3.70;88.60;;;;;;4102345;28;20048;-64
2021/12/03 02:30:58;;;;;;;0.00;0.00;;;3.70;88.60;;;;;;4102122;28;20047;-68
2021/12/03 02:33:21;;;;;;;0.00;0.00;;;3.70;88.60;;;;;;4102745;28;20136;-69
2021/12/03 02:35:44;;;;;;;0.00;0.00;;;3.70;88.60;;;;;;4102603;28;20099;-68
2021/12/03 02:38:08;;;;;;;0.00;0.00;;;3.80;88.70;;;;;;4116067;28;20055;-68
2021/12/03 02:40:31;;;;;;;0.00;0.00;;;3.70;88.40;;;;;;4101966;28;20058;-68
2021/12/03 02:42:54;;;;;;;0.00;0.00;;;3.70;88.40;;;;;;4102449;28;20050;-68
2021/12/03 02:45:17;;;;;;;0.00;0.00;;;3.70;87.90;;;;;;4102331;28;20043;-69
2021/12/03 02:47:40;;;;;;;0.00;0.00;;;3.60;88.20;;;;;;4102496;28;20059;-69
2021/12/03 02:50:04;;;;;;;0.00;0.00;;;3.60;87.90;;;;;;4102384;28;20488;-64
2021/12/03 02:52:26;;;;;;;0.00;0.00;;;3.60;87.80;;;;;;4101702;28;20087;-70
2021/12/03 02:54:49;;;;;;;0.00;0.00;;;3.60;87.70;;;;;;4102212;28;20043;-68
2021/12/03 02:57:11;;;;;;;0.00;0.00;;;3.50;87.40;;;;;;4102384;28;20536;-68
2021/12/03 02:59:34;;;;;;;0.00;0.00;;;3.50;87.20;;;;;;4102149;28;20106;-68
2021/12/03 03:01:58;;;;;;;0.00;0.00;;;3.50;87.20;;;;;;4112423;28;20043;-69
2021/12/03 03:04:41;;;;;;;0.00;0.00;;;3.50;86.90;;;;;;4117733;28;20126;-66
2021/12/03 03:07:03;;;;;;;0.00;0.00;;;3.50;86.80;;;;;;4118209;28;20039;-69
2021/12/03 03:09:26;;;;;;;0.00;0.00;;;3.50;86.40;;;;;;4117167;28;20054;-54
2021/12/03 03:11:48;;;;;;;0.00;0.00;;;3.40;86.80;;;;;;4117738;28;20137;-56
2021/12/03 03:14:12;;;;;;;0.00;0.00;;;3.50;86.70;;;;;;4104931;28;20085;-56
2021/12/03 03:16:35;;;;;;;0.00;0.00;;;3.50;86.00;;;;;;4117374;28;20080;-58
2021/12/03 03:18:57;;;;;;;0.00;0.00;;;3.50;85.90;;;;;;4117845;28;20053;-57
2021/12/03 03:21:20;;;;;;;0.00;0.00;;;3.50;85.50;;;;;;4127594;28;20057;-56
2021/12/03 03:23:50;;;;;;;0.00;0.00;;;3.50;85.20;;;;;;4131292;28;20129;-58
2021/12/03 03:26:13;;;;;;;0.00;0.00;;;3.50;85.30;;;;;;4116325;28;20074;-69
2021/12/03 03:28:36;;;;;;;0.00;0.00;;;3.50;85.20;;;;;;4116896;28;20098;-69
2021/12/03 03:31:00;;;;;;;0.00;0.00;;;3.50;84.80;;;;;;4130835;28;20081;-58
2021/12/03 03:33:23;;;;;;;0.00;0.00;;;3.50;84.70;;;;;;4131111;28;20057;-58
2021/12/03 03:35:45;;;;;;;0.00;0.00;;;3.50;84.80;;;;;;4131057;28;20046;-58
2021/12/03 03:38:08;;;;;;;0.00;0.00;;;3.50;84.90;;;;;;4117656;28;20431;-58
2021/12/03 03:40:32;;;;;;;0.00;0.00;;;3.60;85.00;;;;;;4130410;28;20117;-65
2021/12/03 03:42:57;;;;;;;0.00;0.00;;;3.50;84.80;;;;;;4131152;28;20126;-57
2021/12/03 03:45:22;;;;;;;0.00;0.00;;;3.50;84.70;;;;;;4117481;28;20142;-56
2021/12/03 03:47:45;;;;;;;0.00;0.00;;;3.50;85.00;;;;;;4130974;28;20057;-56
2021/12/03 03:50:09;;;;;;;0.00;0.00;;;3.40;85.10;;;;;;4129446;28;20054;-57
2021/12/03 03:52:33;;;;;;;0.00;0.00;;;3.40;85.10;;;;;;4130625;28;20133;-57
2021/12/03 03:54:56;;;;;;;0.00;0.00;;;3.40;85.40;;;;;;4114727;28;20057;-58
2021/12/03 03:57:18;;;;;;;0.00;0.00;;;3.40;85.30;;;;;;4117423;28;20412;-58
2021/12/03 03:59:40;;;;;;;0.00;0.00;;;3.40;85.70;;;;;;4130780;28;20594;-59
2021/12/03 04:02:03;;;;;;;0.00;0.00;;;3.40;85.60;;;;;;4130432;28;20042;-56
2021/12/03 04:04:26;;;;;;;0.00;0.00;;;3.30;85.40;;;;;;4116693;28;20081;-63
2021/12/03 04:06:49;;;;;;;0.00;0.00;;;3.30;85.70;;;;;;4130881;28;20046;-59
2021/12/03 04:09:13;;;;;;;0.00;0.00;;;3.30;85.70;;;;;;4117209;28;20439;-58
2021/12/03 04:11:35;;;;;;;0.00;0.00;;;3.20;85.60;;;;;;4116891;28;20058;-56
2021/12/03 04:13:57;;;;;;;0.00;0.00;;;3.20;85.70;;;;;;4130622;28;20505;-58
2021/12/03 04:16:20;;;;;;;0.00;0.00;;;3.20;85.60;;;;;;4116582;28;20412;-69
2021/12/03 04:18:42;;;;;;;0.00;0.00;;;3.10;85.70;;;;;;4130577;28;20768;-63
2021/12/03 04:21:05;;;;;;;0.00;0.00;;;3.00;86.10;;;;;;4116788;28;20535;-69
2021/12/03 04:23:27;;;;;;;0.00;0.00;;;3.10;86.10;;;;;;4116706;28;20097;-67
2021/12/03 04:25:50;;;;;;;0.00;0.00;;;3.20;85.70;;;;;;4116843;28;20133;-68
2021/12/03 04:28:16;;;;;;;0.00;0.00;;;3.20;85.60;;;;;;4116901;28;20089;-69
2021/12/03 04:30:40;;;;;;;0.00;0.00;;;3.20;85.80;;;;;;4116543;28;20043;-61
2021/12/03 04:33:03;;;;;;;0.00;0.00;;;3.10;86.20;;;;;;4116918;28;20039;-61
2021/12/03 04:35:27;;;;;;;0.00;0.00;;;3.10;86.30;;;;;;4116692;28;20039;-65
2021/12/03 04:37:50;;;;;;;0.00;0.00;;;3.10;86.30;;;;;;4116797;28;20049;-69
2021/12/03 04:40:14;;;;;;;0.00;0.00;;;3.10;86.40;;;;;;4116637;28;20065;-68
2021/12/03 04:42:37;;;;;;;0.00;0.00;;;3.10;86.50;;;;;;4116128;28;20038;-68
2021/12/03 04:44:59;;;;;;;0.00;0.00;;;3.10;86.40;;;;;;4116782;28;20098;-65
2021/12/03 04:47:22;;;;;;;0.00;0.00;;;2.90;86.70;;;;;;4116626;28;20061;-69
2021/12/03 04:49:44;;;;;;;0.00;0.00;;;2.90;87.00;;;;;;4130158;28;20076;-69
2021/12/03 04:52:07;;;;;;;0.00;0.00;;;2.60;87.80;;;;;;4129703;28;20050;-69
2021/12/03 04:54:29;;;;;;;0.00;0.00;;;2.60;88.10;;;;;;4116068;28;20102;-69
2021/12/03 04:56:51;;;;;;;0.00;0.00;;;2.70;87.80;;;;;;4116631;28;20053;-69
2021/12/03 04:59:14;;;;;;;0.00;0.00;;;2.80;87.50;;;;;;4129973;28;20050;-69
2021/12/03 05:01:38;;;;;;;0.00;0.00;;;2.90;87.40;;;;;;4129515;28;20054;-68
2021/12/03 05:04:01;;;;;;;0.00;0.00;;;2.90;87.30;;;;;;4116354;28;20524;-67
2021/12/03 05:06:31;;;;;;;0.00;0.00;;;2.90;87.20;;;;;;4115925;28;20050;-70
2021/12/03 05:08:53;;;;;;;0.00;0.00;;;2.90;87.00;;;;;;4129782;28;20132;-69
2021/12/03 05:11:15;;;;;;;0.00;0.00;;;2.90;86.90;;;;;;4115940;28;20047;-70
2021/12/03 05:13:38;;;;;;;0.00;0.00;;;2.90;87.10;;;;;;4129734;28;20061;-68
2021/12/03 05:16:01;;;;;;;0.00;0.00;;;2.90;87.30;;;;;;4129532;28;20231;-66
2021/12/03 05:18:27;;;;;;;0.00;0.00;;;2.90;87.20;;;;;;4115522;28;20082;-66
2021/12/03 05:20:52;;;;;;;0.00;0.00;;;2.90;87.40;;;;;;4115984;28;20929;-67
2021/12/03 05:23:15;;;;;;;0.00;0.00;;;3.00;87.20;;;;;;4116051;28;20047;-69
2021/12/03 05:25:38;;;;;;;0.00;0.00;;;3.00;87.00;;;;;;4129571;28;20058;-59
2021/12/03 05:28:01;;;;;;;0.00;0.00;;;3.00;87.20;;;;;;4116060;28;20634;-69
2021/12/03 05:30:24;;;;;;;0.00;0.00;;;3.00;87.00;;;;;;4115571;28;20492;-70
2021/12/03 05:32:48;;;;;;;0.00;0.00;;;3.00;87.10;;;;;;4116018;28;20074;-65
2021/12/03 05:35:11;;;;;;;0.00;0.00;;;3.00;87.50;;;;;;4115938;28;20050;-59
2021/12/03 05:37:34;;;;;;;0.00;0.00;;;3.00;87.30;;;;;;4116007;28;20492;-70
2021/12/03 05:39:57;;;;;;;0.00;0.00;;;2.90;87.40;;;;;;4129353;28;20055;-54
2021/12/03 05:42:19;;;;;;;0.00;0.00;;;3.00;87.40;;;;;;4115334;28;20432;-59
2021/12/03 05:44:41;;;;;;;0.00;0.00;;;3.00;87.70;;;;;;4129320;28;20511;-69
2021/12/03 05:47:04;;;;;;;0.00;0.00;;;3.00;87.50;;;;;;4102450;28;20041;-70
2021/12/03 05:49:27;;;;;;;0.00;0.00;;;3.00;87.30;;;;;;4115786;28;20129;-68
2021/12/03 05:51:50;;;;;;;0.00;0.00;;;3.00;87.20;;;;;;4115635;28;20054;-66
2021/12/03 05:54:12;;;;;;;0.00;0.00;;;2.90;87.50;;;;;;4115950;28;20106;-60
2021/12/03 05:56:35;;;;;;;0.00;0.00;;;3.00;87.70;;;;;;4115520;28;20039;-70
2021/12/03 05:58:57;;;;;;;0.00;0.00;;;3.00;87.70;;;;;;4115795;28;20051;-67
2021/12/03 06:01:20;;;;;;;0.00;0.00;;;2.90;87.60;;;;;;4114770;28;20065;-70
2021/12/03 06:03:42;;;;;;;0.00;0.00;;;2.70;88.00;;;;;;4115512;28;20051;-71
2021/12/03 06:06:05;;;;;;;0.00;0.00;;;2.70;88.60;;;;;;4115944;28;20061;-73
2021/12/03 06:08:27;;;;;;;0.00;0.00;;;2.80;88.40;;;;;;4128795;28;20061;-70
2021/12/03 06:10:49;;;;;;;0.00;0.00;;;2.90;88.40;;;;;;4115489;28;20125;-72
2021/12/03 06:13:12;;;;;;;0.00;0.00;;;2.90;88.10;;;;;;4129292;28;20462;-70
2021/12/03 06:15:34;;;;;;;0.00;0.00;;;2.90;88.00;;;;;;4129366;28;20067;-72
2021/12/03 06:17:58;;;;;;;0.00;0.00;;;2.90;88.00;;;;;;4115416;28;20066;-69
2021/12/03 06:20:22;;;;;;;0.00;0.00;;;2.90;88.10;;;;;;4115398;28;20110;-70
2021/12/03 06:23:30;;;;;;;0.00;0.00;;;2.90;88.10;;;;;;4129169;28;20588;-73
2021/12/03 06:25:55;;;;;;;0.00;0.00;;;2.90;88.00;;;;;;4102178;28;20043;-70
2021/12/03 06:28:18;;;;;;;0.00;0.00;;;2.90;87.90;;;;;;4128476;28;20070;-68
2021/12/03 06:30:42;;;;;;;0.00;0.00;;;2.90;87.70;;;;;;4115537;28;20125;-69
2021/12/03 06:33:05;;;;;;;0.00;0.00;;;2.90;87.70;;;;;;4115516;28;20582;-69
2021/12/03 06:35:27;;;;;;;0.00;0.00;;;2.90;87.50;;;;;;4128907;28;20054;-64
2021/12/03 06:37:50;;;;;;;0.00;0.00;;;2.90;87.70;;;;;;4102042;28;20110;-69
2021/12/03 06:40:19;;;;;;;0.00;0.00;;;2.90;87.60;;;;;;4115123;28;20487;-64
2021/12/03 06:42:42;;;;;;;0.00;0.00;;;2.80;87.70;;;;;;4130164;28;20065;-69
2021/12/03 06:45:08;;;;;;;0.00;0.00;;;2.90;87.40;;;;;;4117897;28;20051;-69
2021/12/03 06:47:31;;;;;;;0.00;0.00;;;3.00;87.30;;;;;;4118246;28;20122;-63
2021/12/03 06:49:54;;;;;;;0.00;0.00;;;3.00;87.20;;;;;;4118220;28;20071;-58
2021/12/03 06:52:16;;;;;;;0.00;0.00;;;3.10;87.30;;;;;;4117520;28;20057;-61
2021/12/03 06:54:39;;;;;;;0.00;0.00;;;3.10;87.20;;;;;;4115603;28;20591;-53
2021/12/03 06:57:05;;;;;;;0.00;0.00;;;3.10;87.00;;;;;;4131737;28;20042;-63
2021/12/03 06:59:28;;;;;;;0.00;0.00;;;3.20;86.80;;;;;;4131627;28;20062;-49
2021/12/03 07:01:52;;;;;;;0.00;0.00;;;3.10;86.50;;;;;;4130421;28;20494;-52
2021/12/03 07:04:15;;;;;;;0.00;0.00;;;3.10;86.30;;;;;;4117214;28;20094;-49
2021/12/03 07:06:38;;;;;;;0.00;0.00;;;3.20;86.20;;;;;;4131624;28;20673;-56
2021/12/03 07:09:00;;;;;;;0.00;0.00;;;3.30;86.00;;;;;;4131452;28;20145;-56
2021/12/03 07:11:23;;;;;;;0.00;0.00;;;3.30;85.60;;;;;;4131212;28;20051;-61
2021/12/03 07:13:46;;;;;;;0.00;0.00;;;3.30;85.40;;;;;;4117827;28;20050;-62
2021/12/03 07:16:08;;;;;;;0.00;0.00;;;3.30;85.20;;;;;;4117106;28;20579;-58
2021/12/03 07:18:30;;;;;;;0.00;0.00;;;3.20;85.30;;;;;;4104095;28;20057;-52
2021/12/03 07:20:53;;;;;;;0.00;0.00;;;3.20;85.50;;;;;;4131180;28;20042;-50
2021/12/03 07:23:15;;;;;;;0.00;0.00;;;3.20;85.50;;;;;;4117522;28;20082;-58
2021/12/03 07:25:37;;;;;;;0.00;0.00;;;3.30;85.20;;;;;;4131225;28;20428;-62
2021/12/03 07:28:00;;;;;;;0.00;0.00;;;3.30;84.80;;;;;;4117681;28;20051;-51
2021/12/03 07:30:24;;;;;;;0.00;0.00;;;3.40;84.50;;;;;;4130777;28;20050;-54
2021/12/03 07:32:57;;;;;;;0.00;0.00;;;3.30;84.10;;;;;;4131161;28;20042;-61
2021/12/03 07:35:19;;;;;;;0.00;0.00;;;3.50;84.20;;;;;;4131075;28;20082;-52
2021/12/03 07:37:43;;;;;;;0.00;0.00;;;3.50;84.20;;;;;;4117320;28;20470;-54
2021/12/03 07:40:07;;;;;;;0.00;0.00;;;3.50;84.00;;;;;;4117517;28;20126;-55
2021/12/03 07:42:30;;;;;;;0.00;0.00;;;3.60;83.70;;;;;;4130511;28;20046;-54
2021/12/03 07:44:53;;;;;;;0.00;0.00;;;3.70;83.40;;;;;;4117327;28;20066;-61
2021/12/03 07:47:15;;;;;;;0.00;0.00;;;3.70;83.70;;;;;;4130954;28;20046;-51
2021/12/03 07:49:39;;;;;;;0.00;0.00;;;3.60;84.00;;;;;;4117373;28;20591;-58
2021/12/03 07:52:03;;;;;;;0.00;0.00;;;3.60;84.00;;;;;;4130620;28;20054;-54
2021/12/03 07:54:25;;;;;;;0.00;0.00;;;3.60;84.00;;;;;;4129892;28;20058;-54
2021/12/03 07:56:50;;;;;;;0.00;0.00;;;3.60;84.00;;;;;;4115138;28;20058;-65
2021/12/03 07:59:17;;;;;;;0.00;0.00;;;3.40;84.70;;;;;;4102845;28;20078;-64
2021/12/03 08:01:45;;;;;;;0.00;0.00;;;3.50;84.80;;;;;;4116773;28;20057;-62
2021/12/03 08:04:08;;;;;;;0.00;0.00;;;3.90;84.50;;;;;;4116908;28;20081;-64
2021/12/03 08:06:31;;;;;;;0.00;0.00;;;4.20;84.00;;;;;;4090201;28;20551;-64
2021/12/03 08:08:53;;;;;;;0.00;0.00;;;4.20;83.40;;;;;;4100928;28;20051;-62
2021/12/03 08:11:16;;;;;;;0.00;0.00;;;4.30;83.30;;;;;;4087435;28;20509;-61
2021/12/03 08:13:40;;;;;;;0.00;0.00;;;4.60;82.50;;;;;;4089176;28;20068;-61
2021/12/03 08:16:03;;;;;;;0.00;0.00;;;5.00;81.70;;;;;;4130461;28;20125;-58
2021/12/03 08:18:26;;;;;;;0.00;0.00;;;5.50;80.70;;;;;;4116165;28;20070;-57
2021/12/03 08:20:53;;;;;;;0.00;0.00;;;5.80;80.10;;;;;;4116575;28;20062;-60
2021/12/03 08:23:15;;;;;;;0.00;0.00;;;5.60;79.60;;;;;;4116698;28;20059;-53
2021/12/03 08:25:37;;;;;;;0.00;0.00;;;5.30;79.40;;;;;;4116661;28;20156;-55
2021/12/03 08:27:59;;;;;;;0.00;0.00;;;5.00;80.20;;;;;;4130022;28;20542;-58
2021/12/03 08:30:25;;;;;;;0.00;0.00;;;4.90;80.60;;;;;;4116119;28;20043;-58
2021/12/03 08:32:53;;;;;;;0.00;0.00;;;4.80;80.90;;;;;;4114157;28;20587;-60
2021/12/03 08:35:20;;;;;;;0.00;0.00;;;4.80;81.00;;;;;;4100584;28;20058;-59
2021/12/03 08:37:49;;;;;;;0.00;0.00;;;5.00;81.00;;;;;;4100555;28;20082;-61
2021/12/03 08:40:13;;;;;;;0.00;0.00;;;5.70;79.80;;;;;;4100573;28;20456;-60
2021/12/03 08:42:36;;;;;;;0.00;0.00;;;6.30;78.40;;;;;;4100037;28;20509;-62
2021/12/03 08:44:59;;;;;;;0.00;0.00;;;6.70;77.60;;;;;;4100179;28;20075;-58
2021/12/03 08:47:23;;;;;;;0.00;0.00;;;7.30;76.30;;;;;;4100675;28;20454;-60
2021/12/03 08:54:53;;;;;;;0.00;0.00;;;7.00;76.20;;;;;;4113745;28;20043;-62
2021/12/03 08:57:31;;;;;;;0.00;0.00;;;7.30;75.20;;;;;;4113670;28;20455;-61
2021/12/03 08:59:56;;;;;;;0.00;0.00;;;7.10;74.30;;;;;;4121470;28;20051;-57
2021/12/03 09:02:20;;;;;;;0.00;0.00;;;7.20;74.50;;;;;;4112652;28;20905;-53
2021/12/03 09:04:43;;;;;;;0.00;0.00;;;7.70;73.40;;;;;;4115730;28;20047;-57
2021/12/03 09:07:06;;;;;;;0.00;0.00;;;8.30;72.20;;;;;;4115495;28;20607;-54
2021/12/03 09:09:29;;;;;;;0.00;0.00;;;8.20;70.50;;;;;;4129642;28;20567;-53
2021/12/03 09:11:53;;;;;;;0.00;0.00;;;8.10;70.90;;;;;;4129327;28;20053;-53
2021/12/03 09:14:28;;;;;;;0.00;0.00;;;8.30;70.70;;;;;;4129107;28;20460;-52
2021/12/03 09:19:46;;;;;;;0.00;0.00;;;9.50;69.30;;;;;;4116113;28;20582;-59
2021/12/03 09:22:11;;;;;;;0.00;0.00;;;10.10;68.10;;;;;;4129360;28;20066;-54
2021/12/03 09:24:38;;;;;;;0.00;0.00;;;10.30;66.20;;;;;;4115585;28;20102;-51
2021/12/03 09:27:02;;;;;;;0.00;0.00;;;10.80;65.30;;;;;;4115904;28;20142;-54
2021/12/03 09:29:54;;;;;;;0.00;0.00;;;10.90;62.70;;;;;;4129240;28;20050;-58
2021/12/03 09:32:27;;;;;;;0.00;0.00;;;10.50;62.30;;;;;;4128790;28;20101;-54
2021/12/03 09:34:50;;;;;;;0.00;0.00;;;10.10;63.90;;;;;;4115987;28;20050;-55
2021/12/03 09:37:14;;;;;;;0.00;0.00;;;9.80;62.50;;;;;;4129361;28;20050;-57
2021/12/03 09:39:41;;;;;;;0.00;0.00;;;9.30;63.00;;;;;;4119943;28;20053;-53
2021/12/03 09:42:04;;;;;;;0.00;0.00;;;8.60;63.80;;;;;;4100130;28;20047;-54
2021/12/03 09:44:30;;;;;;;0.00;0.00;;;8.10;65.20;;;;;;4099327;28;20121;-56
2021/12/03 09:46:53;;;;;;;0.00;0.00;;;7.90;66.10;;;;;;4099762;28;20043;-58
2021/12/03 09:56:53;;;;;;;0.00;0.00;;;7.10;71.20;;;;;;4099396;28;20065;-60
2021/12/03 10:15:40;;;;;;;0.00;0.00;;;7.00;66.80;;;;;;4115712;28;20223;-62
2021/12/03 10:40:30;;;;;;;0.00;0.00;;;11.90;55.10;;;;;;4022831;29;20049;-49
2021/12/03 10:48:58;;;;;;;0.00;0.00;;;11.00;55.60;;;;;;4022470;29;20212;-62
2021/12/03 10:54:05;;;;;;;0.00;0.00;;;11.00;56.30;;;;;;4036786;29;20111;-50
2021/12/03 10:57:24;;;;;;;0.00;0.00;;;10.90;56.40;;;;;;4069039;29;20078;-50
2021/12/03 10:59:49;;;;;;;0.00;0.00;;;11.50;55.60;;;;;;4067221;29;20048;-49
2021/12/03 11:16:40;;;;;;;0.00;0.00;;;11.80;54.10;;;;;;4101666;28;20051;-57
2021/12/03 11:33:42;;;;;;;0.00;0.00;;;9.90;54.60;;;;;;4104894;28;20830;-57
2021/12/03 12:27:44;;;;;;;0.00;0.00;;;6.80;67.00;;;;;;4100750;28;20055;-50
2021/12/03 13:13:29;;;;;;;0.00;0.00;;;6.30;66.60;;;;;;4129456;28;20046;-61
2021/12/03 14:00:02;;;;;;;0.00;0.00;;;6.80;63.50;;;;;;4103117;28;20053;-54
2021/12/03 14:16:03;;;;;;;0.00;0.00;;;6.90;63.50;;;;;;4102242;28;20397;-62
2021/12/03 14:37:34;;;;;;;0.00;0.00;;;6.50;64.90;;;;;;4101876;28;20059;-49
2021/12/03 14:42:54;;;;;;;0.00;0.00;;;6.50;65.10;;;;;;4101914;28;20070;-62
2021/12/03 14:56:11;;;;;;;0.00;0.00;;;6.30;65.40;;;;;;4118018;28;20125;-56
2021/12/03 15:01:09;;;;;;;0.00;0.00;;;6.10;66.20;;;;;;4117617;28;20043;-48
2021/12/03 15:06:28;;;;;;;0.00;0.00;;;5.80;66.80;;;;;;4131328;28;20054;-52
2021/12/03 15:08:54;;;;;;;0.00;0.00;;;5.60;67.20;;;;;;4117509;28;20051;-51
2021/12/03 15:40:39;;;;;;;0.00;0.00;;;4.10;78.90;;;;;;4100944;28;20551;-49
2021/12/03 15:52:40;;;;;;;0.00;0.00;;;4.20;79.40;;;;;;4114494;28;20134;-55
2021/12/03 15:56:46;;;;;;;0.00;0.00;;;4.00;80.20;;;;;;4116994;28;20042;-53
2021/12/03 16:04:21;;;;;;;0.00;0.00;;;3.80;81.20;;;;;;4130079;28;20582;-53
2021/12/03 16:12:02;;;;;;;0.00;0.00;;;3.80;81.20;;;;;;4116710;28;20097;-52
2021/12/03 16:14:55;;;;;;;0.00;0.00;;;3.70;81.70;;;;;;4103177;28;20106;-54
2021/12/03 16:17:22;;;;;;;0.00;0.00;;;3.60;82.30;;;;;;4116748;28;20476;-56
2021/12/03 16:53:23;;;;;;;0.00;0.00;;;2.90;85.60;;;;;;4103834;28;20038;-55
2021/12/03 16:56:12;;;;;;;0.00;0.00;;;2.90;85.70;;;;;;4102825;28;20039;-56
2021/12/03 16:58:37;;;;;;;0.00;0.00;;;2.90;85.90;;;;;;4116027;28;20055;-56
2021/12/03 17:01:25;;;;;;;0.00;0.00;;;2.90;85.90;;;;;;4112854;28;20576;-60
2021/12/03 17:03:59;;;;;;;0.00;0.00;;;2.90;85.80;;;;;;4100270;28;20571;-53
2021/12/03 17:07:12;;;;;;;0.00;0.00;;;3.00;85.90;;;;;;4099885;28;20070;-55
2021/12/03 17:44:29;;;;;;;0.00;0.00;;;3.40;85.00;;;;;;4066907;29;20044;-57
2021/12/03 17:49:16;;;;;;;0.00;0.00;;;3.20;85.00;;;;;;4065804;29;20059;-63
2021/12/03 17:56:34;;;;;;;0.00;0.00;;;3.50;84.00;;;;;;4099335;28;19922;-53
2021/12/03 18:02:02;;;;;;;0.00;0.00;;;3.50;83.30;;;;;;4066917;29;20074;-60
2021/12/03 18:04:38;;;;;;;0.00;0.00;;;3.50;82.70;;;;;;4066733;29;20056;-61
2021/12/03 18:07:13;;;;;;;0.00;0.00;;;3.60;82.50;;;;;;4067209;29;20772;-61
2021/12/03 18:17:28;;;;;;;0.00;0.00;;;3.60;81.90;;;;;;4066882;29;20524;-61
2021/12/03 18:46:50;;;;;;;0.00;0.00;;;2.60;81.30;;;;;;4101762;28;20138;-60
2021/12/03 18:51:44;;;;;;;0.00;0.00;;;2.70;81.30;;;;;;4102046;28;20055;-63
2021/12/03 18:56:51;;;;;;;0.00;0.00;;;2.60;81.10;;;;;;4101807;28;20432;-63
2021/12/03 18:59:14;;;;;;;0.00;0.00;;;2.60;81.00;;;;;;4102105;28;20134;-64
2021/12/03 19:01:38;;;;;;;0.00;0.00;;;2.60;81.00;;;;;;4101960;28;20126;-57
2021/12/03 19:09:15;;;;;;;0.00;0.00;;;2.60;81.60;;;;;;4115659;28;20105;-62
2021/12/03 19:14:19;;;;;;;0.00;0.00;;;2.60;82.30;;;;;;4101600;28;20065;-60
2021/12/03 19:16:41;;;;;;;0.00;0.00;;;2.60;82.20;;;;;;4102079;28;20035;-62
2021/12/03 19:19:05;;;;;;;0.00;0.00;;;2.60;82.40;;;;;;4115496;28;20034;-62
2021/12/03 19:21:32;;;;;;;0.00;0.00;;;2.60;82.60;;;;;;4088308;28;20098;-62
2021/12/03 19:23:59;;;;;;;0.00;0.00;;;2.50;82.50;;;;;;4102036;28;20146;-63
2021/12/03 19:26:22;;;;;;;0.00;0.00;;;2.50;82.70;;;;;;4101234;28;20063;-58
2021/12/03 19:28:44;;;;;;;0.00;0.00;;;2.40;82.90;;;;;;4101867;28;20043;-60
2021/12/03 19:31:06;;;;;;;0.00;0.00;;;2.40;83.30;;;;;;4101473;28;20039;-63
2021/12/03 19:33:29;;;;;;;0.00;0.00;;;2.40;83.20;;;;;;4101641;28;20452;-59
2021/12/03 19:35:51;;;;;;;0.00;0.00;;;2.40;83.60;;;;;;4101739;28;20047;-62
2021/12/03 19:38:17;;;;;;;0.00;0.00;;;2.50;83.10;;;;;;4101147;28;20125;-59
2021/12/03 19:40:42;;;;;;;0.00;0.00;;;2.50;83.40;;;;;;4101518;28;20054;-63
2021/12/03 19:43:10;;;;;;;0.00;0.00;;;2.50;83.20;;;;;;4114882;28;20042;-57
2021/12/03 19:45:36;;;;;;;0.00;0.00;;;2.50;82.70;;;;;;4101601;28;20079;-49
2021/12/03 19:48:03;;;;;;;0.00;0.00;;;2.50;82.20;;;;;;4101386;28;20043;-61
2021/12/03 19:52:58;;;;;;;0.00;0.00;;;2.50;81.60;;;;;;4101218;28;20635;-64
2021/12/03 19:55:22;;;;;;;0.00;0.00;;;2.60;81.70;;;;;;4101373;28;20122;-56
2021/12/03 19:57:44;;;;;;;0.00;0.00;;;2.60;81.20;;;;;;4101268;28;20051;-56
2021/12/03 20:00:08;;;;;;;0.00;0.00;;;2.60;81.30;;;;;;4101321;28;20126;-50
2021/12/03 20:02:35;;;;;;;0.00;0.00;;;2.60;81.40;;;;;;4100883;28;20043;-57
2021/12/03 20:04:59;;;;;;;0.00;0.00;;;2.60;81.60;;;;;;4101177;28;20126;-54
2021/12/03 20:07:21;;;;;;;0.00;0.00;;;2.50;81.90;;;;;;4101068;28;20047;-58
2021/12/03 20:10:10;;;;;;;0.00;0.00;;;2.60;82.00;;;;;;4114547;28;20054;-60
2021/12/03 20:12:29;;;;;;;0.00;0.00;;;2.70;82.00;;;;;;4100413;28;20043;-56
2021/12/03 20:14:52;;;;;;;0.00;0.00;;;2.80;81.90;;;;;;4101096;28;20043;-61
2021/12/03 20:20:10;;;;;;;0.00;0.00;;;3.10;81.10;;;;;;4068305;29;20523;-55
2021/12/03 20:30:45;;;;;;;0.00;0.00;;;3.10;80.10;;;;;;4051882;29;20529;-58
2021/12/03 20:35:58;;;;;;;0.00;0.00;;;2.90;80.70;;;;;;4037082;29;19924;-53
2021/12/03 20:38:24;;;;;;;0.00;0.00;;;3.00;81.00;;;;;;4036630;29;20124;-62
2021/12/03 20:40:52;;;;;;;0.00;0.00;;;3.00;81.20;;;;;;4036816;29;20148;-52